• Join FlightAware (Why Join?)
  • Login
  • US Flag 
03:03AM EDT


 

Airport Tracker/Info


-or-


 

Live Flight TrackerFlight Track Log ✈ EJA122 ✈ 15-Jul-2013 ✈ KTEB - KDTW

Flight Track Log - Related Links

Times and Time Zones

All times are in EDT time to prevent confusion due to time zone crossing. See the EJA122 flight status page for this flight to view local times or setup timezone preferences in your user account.

Time Position Orientation Groundspeed Altitude Reporting Facility
EDT Latitude Longitude Course Direction KTS MPH feet Rate Location/Type
06:32PM 40.8667 -74.0500 339° North 154 177 700  Level New York TRACON
06:33PM 40.9000 -74.0667 339° North 193 222 2,600 1,860 Climbing New York TRACON
06:34PM 40.9167 -74.1500 285° West 224 258 4,500 1,440 Climbing New York TRACON
06:35PM 40.9333 -74.2333 285° West 257 296 5,400 1,140 Climbing New York TRACON
06:36PM 40.9500 -74.3333 282° West 271 312 6,800 2,100 Climbing New York TRACON
06:37PM 40.9667 -74.4167 285° West 255 293 9,900 1,320 Climbing New York TRACON
06:39PM 41.1150 -74.3761 12° North 278 320 10,800 840 Climbing New York Center
06:40PM 41.1961 -74.3722 North 304 350 12,400 1,560 Climbing New York Center
06:41PM 41.2797 -74.4347 331° Northwest 325 374 13,900 1,440 Climbing New York Center
06:42PM 41.3178 -74.5444 295° West 332 382 15,300 1,440 Climbing New York Center
06:43PM 41.3636 -74.6797 294° West 359 413 16,900 1,560 Climbing New York Center
06:44PM 41.3975 -74.7867 293° West 359 413 18,500 1,680 Climbing New York Center
06:45PM 41.4353 -74.8997 294° West 353 406 20,400 1,980 Climbing New York Center
06:46PM 41.4708 -75.0097 293° West 342 394 22,500 1,980 Climbing New York Center
06:47PM 41.5044 -75.1144 293° West 322 371 24,400 1,620 Climbing New York Center
06:48PM 41.5403 -75.2192 295° West 315 362 25,800 1,320 Climbing New York Center
06:49PM 41.5756 -75.3269 294° West 315 362 27,100 1,080 Climbing New York Center
06:50PM 41.6108 -75.4403 293° West 326 375 28,000 840 Climbing New York Center
06:51PM 41.6500 -75.5569 294° West 337 388 28,900 840 Climbing New York Center
06:52PM 41.6906 -75.6847 293° West 353 406 29,700 780 Climbing New York Center
06:53PM 41.7311 -75.8100 293° West 365 420 30,500 780 Climbing New York Center
06:54PM 41.7731 -75.9439 293° West 375 432 31,400 840 Climbing New York Center
06:55PM 41.8172 -76.0811 293° West 387 445 32,200 780 Climbing New York Center
06:56PM 41.8608 -76.2181 293° West 397 457 33,000 840 Climbing New York Center
06:57PM 41.9025 -76.3553 292° West 403 464 34,000 480 Climbing New York Center
06:58PM 41.9456 -76.4983 292° West 403 464 34,000  Level New York Center
06:59PM 41.9906 -76.6444 293° West 413 475 34,000  Level New York Center
07:00PM 42.0372 -76.7939 293° West 420 483 34,000  Level New York Center
07:01PM 42.0836 -76.9436 293° West 425 489 34,000 420 Level New York Center
07:02PM 42.1511 -77.1689 292° West 440 506 35,100 900 Climbing Cleveland Center
07:03PM 42.1950 -77.3150 292° West 425 489 36,300 1,140 Climbing Cleveland Center
07:04PM 42.2364 -77.4533 292° West 418 481 37,400 840 Climbing Cleveland Center
07:05PM 42.2775 -77.5886 292° West 403 464 38,000 300 Climbing Cleveland Center
07:06PM 42.3228 -77.7297 293° West 403 464 38,000  Level Cleveland Center
07:07PM 42.3700 -77.8767 294° West 410 472 38,000  Level Cleveland Center
07:08PM 42.4172 -78.0239 294° West 420 483 38,000  Level Cleveland Center
07:09PM 42.4664 -78.1739 294° West 430 495 38,000  Level Cleveland Center
07:10PM 42.5131 -78.3242 293° West 435 501 38,000  Level Cleveland Center
07:11PM 42.5619 -78.4747 294° West 435 501 38,000  Level Cleveland Center
07:12PM 42.6106 -78.6281 293° West 435 501 38,000  Level Cleveland Center
07:13PM 42.6589 -78.7819 293° West 435 501 38,000 -840 Level Cleveland Center
07:14PM 42.7047 -78.9361 292° West 435 501 36,400 -1,620 Descending Cleveland Center
07:15PM 42.7153 -79.0969 275° West 435 501 34,800 -1,620 Descending Cleveland Center
07:16PM 42.7175 -79.2636 271° West 429 494 33,200 -900 Descending Cleveland Center
07:17PM 42.7192 -79.4331 271° West 440 506 33,000 -120 Descending Cleveland Center
07:18PM 42.7186 -79.6025 270° West 450 518 33,000  Level Cleveland Center
07:19PM 42.7178 -79.7722 270° West 455 524 33,000 -540 Level Cleveland Center
07:20PM 42.7147 -79.9417 269° West 455 524 32,000 -1,200 Descending Cleveland Center
07:21PM 42.7114 -80.1114 269° West 455 524 30,600 -1,440 Descending Cleveland Center
07:22PM 42.7119 -80.2808 270° West 455 524 29,200 -1,320 Descending Cleveland Center
07:23PM 42.7103 -80.4533 269° West 455 524 28,000 -600 Descending Cleveland Center
07:24PM 42.7103 -80.6200 270° West 454 522 28,000 -600 Level Cleveland Center
07:25PM 42.7081 -80.7950 269° West 460 529 26,900 -1,380 Descending Cleveland Center
07:26PM 42.6992 -80.9589 266° West 450 518 25,300 -1,500 Descending Cleveland Center
07:27PM 42.6797 -81.1283 261° West 450 518 24,000 -660 Descending Cleveland Center
07:28PM 42.6581 -81.3058 261° West 445 512 24,000  Level Cleveland Center
07:29PM 42.6403 -81.4667 262° West 440 506 24,000 -840 Level Cleveland Center
07:30PM 42.6200 -81.6272 260° West 440 506 22,400 -1,620 Descending Cleveland Center
07:31PM 42.6019 -81.7764 261° West 424 488 20,800 -1,920 Descending Cleveland Center
07:32PM 42.5778 -81.8914 254° West 380 437 18,600 -1,980 Descending Cleveland Center
07:33PM 42.5350 -81.9947 241° Southwest 339 390 16,900 -1,800 Descending Cleveland Center
07:34PM 42.4897 -82.1036 241° Southwest 329 379 15,100 -1,680 Descending Cleveland Center
07:35PM 42.4764 -82.1653 254° West 314 361 14,300 -1,500 Descending Cleveland Center
07:36PM 42.4769 -82.2778 270° West 307 353 12,900 -1,380 Descending Cleveland Center
07:36PM 42.4803 -82.3286 275° West 299 344 12,400 -900 Descending Cleveland Center
07:37PM 42.4878 -82.3853 280° West 285 328 12,000 -300 Descending Cleveland Center
07:38PM 42.5006 -82.4953 279° West 294 338 12,000  Level Cleveland Center
07:39PM 42.4861 -82.6047 260° West 305 351 12,000  Level Cleveland Center
07:40PM 42.4450 -82.6992 239° Southwest 288 331 12,000  Level Cleveland Center
07:41PM 42.4031 -82.8131 244° Southwest 312 359 12,000  Level Cleveland Center
07:42PM 42.3472 -82.9008 229° Southwest 301 346 12,000  Level Cleveland Center
07:43PM 42.2769 -82.9769 219° Southwest 302 348 12,000 -60 Level Cleveland Center
07:44PM 42.2336 -83.0456 230° Southwest 273 314 11,900 -840 Descending Cleveland Center
07:45PM 42.1942 -83.1419 241° Southwest 245 282 10,400 -1,380 Descending Cleveland Center
07:46PM 42.1756 -83.2197 252° West 244 281 9,200 -1,380 Descending Cleveland Center
07:47PM 42.1142 -83.2675 210° Southwest 242 278 7,800 -1,440 Descending Cleveland Center
07:48PM 42.0631 -83.3047 208° Southwest 232 267 6,500 -1,620 Descending Cleveland Center
07:49PM 41.9997 -83.3467 206° Southwest 228 262 4,600 -1,200 Descending Cleveland Center
07:50PM 41.9467 -83.3833 207° Southwest 214 246 4,000 -300 Descending Cleveland Center
07:51PM 41.8914 -83.4283 211° Southwest 226 260 4,000  Level Cleveland Center